Time;durP1;ratioP1;P1;durP2;ratioP2;P2;SDS_P1;SDS_P2;PMS_P1;PMS_P2;Temp;Humidity;BMP_temperature;BMP_pressure;BME280_temperature;BME280_humidity;BME280_pressure;Samples;Min_cycle;Max_cycle;Signal;HPM_P1;HPM_P2
2022/11/16 00:01:19;;;;;;;23.03;14.20;;;8.10;99.90;9.30;95895.00;;;;5044041;28;20587;-68
2022/11/16 00:04:11;;;;;;;22.70;13.90;;;8.00;99.90;9.10;95888.00;;;;5053507;28;20228;-68
2022/11/16 00:07:01;;;;;;;20.37;12.53;;;8.00;99.90;9.00;95901.00;;;;5053201;28;20200;-68
2022/11/16 00:09:50;;;;;;;17.73;12.30;;;7.90;99.90;9.00;95888.00;;;;5047611;28;20664;-68
2022/11/16 00:12:39;;;;;;;22.63;11.77;;;7.90;99.90;8.90;95889.00;;;;5047248;28;20232;-68
2022/11/16 00:15:29;;;;;;;14.80;10.07;;;7.80;99.90;8.80;95881.00;;;;5038336;28;20229;-67
2022/11/16 00:18:18;;;;;;;15.10;10.57;;;7.70;99.90;8.80;95871.00;;;;5043313;28;20247;-67
2022/11/16 00:21:07;;;;;;;18.53;11.00;;;7.60;99.90;8.70;95877.00;;;;5052267;28;20689;-68
2022/11/16 00:23:56;;;;;;;16.57;10.20;;;7.60;99.90;8.60;95890.00;;;;5040877;28;20258;-69
2022/11/16 00:26:46;;;;;;;17.80;10.77;;;7.50;99.90;8.60;95887.00;;;;5038122;28;20624;-68
2022/11/16 00:29:35;;;;;;;15.23;10.87;;;7.50;99.90;8.60;95887.00;;;;5047201;28;20224;-69
2022/11/16 00:32:25;;;;;;;17.13;10.50;;;7.40;99.90;8.50;95877.00;;;;5049382;28;20217;-69
2022/11/16 00:35:13;;;;;;;17.00;10.37;;;7.40;99.90;8.40;95875.00;;;;5048340;28;20222;-70
2022/11/16 00:38:02;;;;;;;17.47;10.53;;;7.30;99.90;8.20;95877.00;;;;5043952;28;20563;-69
2022/11/16 00:40:51;;;;;;;19.23;11.37;;;7.20;99.90;8.10;95877.00;;;;5051595;28;20196;-69
2022/11/16 00:43:39;;;;;;;16.23;10.70;;;7.20;99.90;8.00;95881.00;;;;5044831;28;20634;-70
2022/11/16 00:46:28;;;;;;;18.00;11.73;;;7.10;99.90;8.10;95876.00;;;;5052272;28;20212;-68
2022/11/16 00:49:18;;;;;;;17.73;10.83;;;7.00;99.90;8.00;95876.00;;;;5051758;28;20204;-69
2022/11/16 00:52:07;;;;;;;14.03;9.77;;;7.00;99.90;8.00;95876.00;;;;5051015;28;20252;-69
2022/11/16 00:54:55;;;;;;;19.37;10.27;;;6.90;99.90;8.00;95872.00;;;;5039957;28;20295;-70
2022/11/16 00:57:44;;;;;;;16.07;10.40;;;6.80;99.90;7.90;95873.00;;;;5049933;28;20447;-70
2022/11/16 01:00:33;;;;;;;14.40;10.17;;;6.80;99.90;7.80;95866.00;;;;5051339;28;20241;-69
2022/11/16 01:03:21;;;;;;;15.63;11.17;;;6.70;99.90;7.60;95870.00;;;;5052347;28;20720;-70
2022/11/16 01:06:14;;;;;;;16.07;9.90;;;6.70;99.90;7.50;95868.00;;;;5040608;28;20266;-69
2022/11/16 01:09:02;;;;;;;16.20;9.73;;;6.60;99.90;7.50;95862.00;;;;5035843;28;20197;-69
2022/11/16 01:12:11;;;;;;;15.60;10.60;;;6.50;99.90;7.40;95854.00;;;;5050735;28;20225;-69
2022/11/16 01:14:59;;;;;;;15.40;10.20;;;6.40;99.90;7.30;95846.00;;;;5051737;28;20252;-69
2022/11/16 01:17:49;;;;;;;17.10;12.03;;;6.40;99.90;7.30;95836.00;;;;5052314;28;20258;-70
2022/11/16 01:20:41;;;;;;;15.77;10.90;;;6.30;99.90;7.30;95825.00;;;;5051807;28;20624;-70
2022/11/16 01:23:31;;;;;;;17.20;10.00;;;6.20;99.90;7.00;95823.00;;;;5045844;28;20254;-70
2022/11/16 01:26:19;;;;;;;16.03;9.93;;;6.10;99.90;7.10;95814.00;;;;5045731;28;20302;-69
2022/11/16 01:29:08;;;;;;;21.17;11.40;;;6.10;99.90;7.10;95820.00;;;;5051443;28;20199;-70
2022/11/16 01:31:58;;;;;;;17.17;10.53;;;6.10;99.90;7.10;95816.00;;;;5048398;28;20216;-69
2022/11/16 01:34:47;;;;;;;14.70;10.63;;;6.00;99.90;7.00;95811.00;;;;5046154;28;20221;-70
2022/11/16 01:37:35;;;;;;;14.77;10.27;;;6.00;99.90;6.90;95808.00;;;;5039818;28;20274;-69
2022/11/16 01:40:27;;;;;;;14.20;9.77;;;5.90;99.90;6.60;95808.00;;;;5051679;28;20196;-70
2022/11/16 01:43:18;;;;;;;15.23;10.60;;;5.80;99.90;6.60;95796.00;;;;5052798;28;20236;-70
2022/11/16 01:46:07;;;;;;;14.33;9.63;;;5.80;99.90;6.70;95805.00;;;;5052018;28;20228;-69
2022/11/16 01:49:03;;;;;;;17.07;10.77;;;5.70;99.90;6.70;95790.00;;;;5051460;28;20192;-69
2022/11/16 01:51:57;;;;;;;19.73;11.47;;;5.70;99.90;6.60;95784.00;;;;5045715;28;20225;-70
2022/11/16 01:54:48;;;;;;;16.70;10.47;;;5.60;99.90;6.50;95778.00;;;;5042152;28;20221;-69
2022/11/16 01:57:42;;;;;;;15.53;9.60;;;5.50;99.90;6.40;95777.00;;;;5051690;28;20208;-69
2022/11/16 02:00:31;;;;;;;16.47;9.90;;;5.50;99.90;6.40;95777.00;;;;5051017;28;20589;-69
2022/11/16 02:03:21;;;;;;;15.47;9.57;;;5.40;99.90;6.40;95778.00;;;;5039471;28;20292;-70
2022/11/16 02:06:32;;;;;;;12.90;9.80;;;5.40;99.90;6.20;95769.00;;;;5051284;28;20232;-69
2022/11/16 02:09:53;;;;;;;13.70;10.03;;;5.30;99.90;6.20;95768.00;;;;5050094;28;20200;-69
2022/11/16 02:13:21;;;;;;;16.30;10.80;;;5.30;99.90;6.30;95768.00;;;;5043349;28;20232;-69
2022/11/16 02:16:23;;;;;;;13.10;9.40;;;5.20;99.90;6.20;95756.00;;;;5043353;28;20289;-69
2022/11/16 02:19:37;;;;;;;14.70;9.60;;;5.20;99.90;5.70;95749.00;;;;5051159;28;20196;-69
2022/11/16 02:22:42;;;;;;;16.10;8.43;;;5.10;99.90;6.00;95747.00;;;;5043416;28;20282;-69
2022/11/16 02:25:40;;;;;;;17.07;10.30;;;5.00;99.90;6.00;95733.00;;;;5037914;28;20684;-69
2022/11/16 02:28:44;;;;;;;17.00;9.33;;;4.90;99.90;6.00;95730.00;;;;5045451;28;20363;-69
2022/11/16 02:31:42;;;;;;;22.13;9.77;;;4.90;99.90;5.90;95728.00;;;;5049871;28;20201;-69
2022/11/16 02:34:36;;;;;;;17.03;9.27;;;4.90;99.90;5.60;95724.00;;;;5046608;28;20249;-68
2022/11/16 02:37:29;;;;;;;16.43;9.47;;;4.80;99.90;5.50;95721.00;;;;5037963;28;20838;-69
2022/11/16 02:40:21;;;;;;;15.60;9.70;;;4.80;99.90;5.70;95724.00;;;;5050388;28;20616;-69
2022/11/16 02:43:14;;;;;;;14.07;9.43;;;4.70;99.90;5.80;95707.00;;;;5039268;28;20250;-69
2022/11/16 02:46:09;;;;;;;13.63;9.20;;;4.70;99.90;5.80;95719.00;;;;5049441;28;20225;-69
2022/11/16 02:49:05;;;;;;;15.47;9.43;;;4.70;99.90;5.80;95710.00;;;;5033103;28;20308;-68
2022/11/16 02:51:54;;;;;;;14.67;10.23;;;4.70;99.90;5.60;95711.00;;;;5050185;28;20247;-69
2022/11/16 02:54:42;;;;;;;13.07;9.00;;;4.70;99.90;5.60;95703.00;;;;5050634;28;20220;-69
2022/11/16 02:57:43;;;;;;;17.63;10.13;;;4.70;99.90;5.60;95703.00;;;;5049008;28;20227;-69
2022/11/16 03:00:42;;;;;;;15.30;9.67;;;4.70;99.90;5.70;95707.00;;;;5050050;28;20200;-69
2022/11/16 03:03:38;;;;;;;13.90;9.23;;;4.70;99.90;5.50;95709.00;;;;5049366;28;20204;-70
2022/11/16 03:06:32;;;;;;;14.13;8.90;;;4.60;99.90;5.50;95702.00;;;;5049070;28;20217;-69
2022/11/16 03:09:27;;;;;;;12.67;7.83;;;4.60;99.90;5.50;95692.00;;;;5047257;28;20230;-69
2022/11/16 03:12:19;;;;;;;19.20;9.77;;;4.60;99.90;5.20;95702.00;;;;5034870;28;20576;-69
2022/11/16 03:15:11;;;;;;;15.17;8.57;;;4.50;99.90;4.90;95705.00;;;;5036238;28;20224;-69
2022/11/16 03:18:00;;;;;;;11.30;8.73;;;4.40;99.90;5.10;95704.00;;;;5044742;28;20286;-69
2022/11/16 03:20:52;;;;;;;12.90;9.03;;;4.40;99.90;5.30;95694.00;;;;5050337;28;20214;-69
2022/11/16 03:23:44;;;;;;;14.37;8.73;;;4.40;99.90;5.20;95704.00;;;;5049387;28;21017;-69
2022/11/16 03:26:43;;;;;;;12.87;8.70;;;4.30;99.90;5.00;95695.00;;;;5043791;28;20477;-69
2022/11/16 03:29:40;;;;;;;13.10;7.53;;;4.30;99.90;4.90;95708.00;;;;5044986;28;20243;-69
2022/11/16 03:32:35;;;;;;;12.07;8.50;;;4.20;99.90;4.80;95715.00;;;;5042057;28;20220;-69
2022/11/16 03:35:28;;;;;;;11.27;8.87;;;4.20;99.90;5.10;95706.00;;;;5042502;28;20482;-69
2022/11/16 03:38:18;;;;;;;13.13;7.67;;;4.20;99.90;5.20;95705.00;;;;5044974;28;21005;-69
2022/11/16 03:41:11;;;;;;;12.20;7.87;;;4.20;99.90;5.20;95699.00;;;;5048546;28;20232;-69
2022/11/16 03:44:00;;;;;;;11.80;7.87;;;4.20;99.90;5.20;95695.00;;;;5036991;28;20201;-69
2022/11/16 03:46:49;;;;;;;13.10;8.10;;;4.20;99.90;5.20;95693.00;;;;5050027;28;20338;-69
2022/11/16 03:49:38;;;;;;;9.20;6.83;;;;;5.10;95690.00;;;;5049423;28;20230;-69
2022/11/16 03:52:26;;;;;;;10.73;7.17;;;4.10;99.90;4.90;95693.00;;;;5047557;28;20474;-70
2022/11/16 03:55:15;;;;;;;9.23;7.33;;;4.10;99.90;4.80;95692.00;;;;5046445;28;20229;-69
2022/11/16 03:58:06;;;;;;;13.37;7.63;;;4.00;99.90;4.60;95684.00;;;;5035910;28;20271;-69
2022/11/16 04:00:54;;;;;;;13.53;6.50;;;3.90;99.90;4.60;95679.00;;;;5035618;28;20644;-69
2022/11/16 04:03:43;;;;;;;12.63;7.63;;;3.90;99.90;4.50;95671.00;;;;5049454;28;20731;-69
2022/11/16 04:25:23;;;;;;;9.87;7.70;;;3.50;99.90;4.50;95671.00;;;;5036722;28;20232;-69
2022/11/16 04:28:15;;;;;;;10.87;8.27;;;3.50;99.90;4.60;95657.00;;;;5035168;28;20438;-69
2022/11/16 04:40:28;;;;;;;13.60;8.60;;;3.50;99.90;4.50;95656.00;;;;5052510;28;20480;-69
2022/11/16 04:43:17;;;;;;;12.77;7.20;;;3.50;99.90;4.40;95648.00;;;;5051740;28;20431;-69
2022/11/16 04:49:13;;;;;;;9.70;7.30;;;3.50;99.90;4.60;95640.00;;;;5051950;28;20845;-69
2022/11/16 04:52:02;;;;;;;17.83;8.37;;;3.60;99.90;4.60;95638.00;;;;5047231;28;20677;-69
2022/11/16 04:54:50;;;;;;;8.57;7.63;;;3.60;99.90;4.60;95637.00;;;;5044054;28;20232;-69
2022/11/16 04:57:39;;;;;;;20.87;9.07;;;3.60;99.90;4.60;95644.00;;;;5052753;28;20521;-69
2022/11/16 05:00:29;;;;;;;10.53;7.90;;;3.60;99.90;4.60;95628.00;;;;5051215;28;20431;-69
2022/11/16 05:03:19;;;;;;;10.10;8.60;;;3.60;99.90;4.60;95617.00;;;;5053074;28;20419;-69
2022/11/16 05:06:08;;;;;;;12.67;7.80;;;3.50;99.90;4.70;95626.00;;;;5045446;28;20225;-69
2022/11/16 05:08:56;;;;;;;12.80;7.63;;;3.60;99.90;4.70;95620.00;;;;5040399;28;20424;-69
2022/11/16 05:11:45;;;;;;;11.93;7.20;;;3.70;99.90;4.60;95630.00;;;;5042536;28;21178;-69
2022/11/16 05:14:34;;;;;;;7.83;5.97;;;3.60;99.90;4.60;95623.00;;;;5051846;28;20529;-69
2022/11/16 05:17:24;;;;;;;10.70;6.67;;;3.60;99.90;4.60;95622.00;;;;5046927;28;20586;-69
2022/11/16 05:26:26;;;;;;;12.50;7.13;;;3.40;99.90;4.40;95608.00;;;;5045749;28;20653;-69
2022/11/16 05:29:15;;;;;;;7.70;6.20;;;3.40;99.90;3.90;95611.00;;;;5048806;28;20474;-70
2022/11/16 05:32:05;;;;;;;10.93;7.40;;;3.40;99.90;4.00;95607.00;;;;5045308;28;20435;-69
2022/11/16 05:34:54;;;;;;;11.77;7.83;;;3.30;99.90;3.90;95603.00;;;;5037337;28;20551;-69
2022/11/16 05:37:44;;;;;;;10.23;6.90;;;3.40;99.90;3.80;95599.00;;;;5038362;28;20497;-69
2022/11/16 05:40:33;;;;;;;12.73;7.57;;;3.20;99.90;3.70;95603.00;;;;5044055;28;20841;-70
2022/11/16 05:43:22;;;;;;;7.50;5.53;;;3.20;99.90;3.80;95598.00;;;;5039445;28;20431;-70
2022/11/16 05:46:10;;;;;;;12.10;7.67;;;3.10;99.90;4.10;95585.00;;;;5038071;28;20626;-70
2022/11/16 05:48:59;;;;;;;10.93;7.80;;;3.10;99.90;4.10;95580.00;;;;5045896;28;20497;-70
2022/11/16 05:51:48;;;;;;;11.90;6.77;;;3.10;99.90;4.00;95576.00;;;;5046776;28;20431;-70
2022/11/16 05:54:38;;;;;;;12.13;7.00;;;3.20;99.90;4.20;95585.00;;;;5050705;28;20471;-70
2022/11/16 05:57:27;;;;;;;9.53;6.90;;;3.20;99.90;4.10;95577.00;;;;5037315;28;20953;-70
2022/11/16 06:00:17;;;;;;;13.90;7.83;;;3.20;99.90;4.00;95573.00;;;;5039750;28;20418;-70
2022/11/16 06:03:06;;;;;;;11.60;7.00;;;3.20;99.90;4.20;95577.00;;;;5037481;28;20478;-70
2022/11/16 06:05:55;;;;;;;10.57;7.37;;;3.20;99.90;4.40;95593.00;;;;5039801;28;20446;-70
2022/11/16 06:08:44;;;;;;;10.87;8.57;;;3.30;99.90;4.50;95589.00;;;;5049252;28;20811;-69
2022/11/16 06:11:35;;;;;;;12.13;7.50;;;3.30;99.90;4.50;95597.00;;;;5043925;28;20484;-70
2022/11/16 06:14:24;;;;;;;12.80;7.77;;;3.20;99.90;4.50;95603.00;;;;5043689;28;20467;-70
2022/11/16 06:17:13;;;;;;;18.07;9.00;;;3.40;99.90;4.40;95599.00;;;;5039973;28;20443;-70
2022/11/16 06:20:02;;;;;;;14.37;10.10;;;;;4.30;95598.00;;;;5034572;28;20440;-70
2022/11/16 06:22:50;;;;;;;15.90;11.07;;;3.50;99.90;4.00;95591.00;;;;5040154;28;20430;-70
2022/11/16 06:25:40;;;;;;;15.43;10.23;;;3.40;99.90;4.20;95586.00;;;;5037736;28;20510;-70
2022/11/16 06:28:30;;;;;;;14.73;9.27;;;3.40;99.90;4.20;95594.00;;;;5036031;28;20881;-69
2022/11/16 06:31:19;;;;;;;16.27;10.03;;;;;4.60;95595.00;;;;5043760;28;20424;-69
2022/11/16 06:34:08;;;;;;;13.43;9.83;;;3.60;99.90;4.60;95588.00;;;;5049315;28;20527;-69
2022/11/16 06:36:57;;;;;;;15.03;10.00;;;;;4.50;95590.00;;;;5043544;28;20228;-69
2022/11/16 06:39:45;;;;;;;13.37;8.90;;;3.60;99.90;4.50;95588.00;;;;5044745;28;20444;-69
2022/11/16 06:42:35;;;;;;;13.73;7.73;;;3.60;99.90;4.50;95593.00;;;;5041610;28;20447;-70
2022/11/16 06:45:25;;;;;;;12.80;8.77;;;3.70;99.90;4.60;95579.00;;;;5038632;28;21040;-70
2022/11/16 06:48:14;;;;;;;13.13;7.83;;;3.60;99.90;4.60;95580.00;;;;5040275;28;20995;-70
2022/11/16 06:51:03;;;;;;;15.97;8.17;;;;;4.80;95578.00;;;;5032598;28;20474;-69
2022/11/16 06:53:51;;;;;;;15.13;8.87;;;3.70;99.90;4.90;95572.00;;;;5033566;28;20464;-70
2022/11/16 06:56:40;;;;;;;16.57;10.67;;;;;4.70;95572.00;;;;5043997;28;20423;-70
2022/11/16 06:59:29;;;;;;;10.70;7.77;;;3.90;99.90;4.80;95558.00;;;;5041567;28;20435;-70
2022/11/16 07:02:20;;;;;;;12.33;7.70;;;3.90;99.90;4.70;95566.00;;;;5047393;28;20505;-69
2022/11/16 07:05:09;;;;;;;13.60;9.43;;;4.00;99.90;5.10;95572.00;;;;5044559;28;20502;-69
2022/11/16 07:07:58;;;;;;;13.13;9.47;;;4.10;99.90;5.20;95561.00;;;;5044564;28;21197;-70
2022/11/16 07:10:47;;;;;;;13.80;7.67;;;4.20;99.90;4.80;95561.00;;;;5048511;28;20966;-69
2022/11/16 07:13:37;;;;;;;16.80;8.43;;;4.10;99.90;4.40;95571.00;;;;5045127;28;20447;-69
2022/11/16 07:16:26;;;;;;;10.90;6.93;;;4.00;99.90;4.30;95571.00;;;;5039977;28;20221;-70
2022/11/16 07:19:16;;;;;;;11.23;7.23;;;3.80;99.90;4.50;95561.00;;;;5042164;28;20423;-69
2022/11/16 07:22:05;;;;;;;13.70;8.07;;;3.80;99.90;4.60;95568.00;;;;5045014;28;20443;-69
2022/11/16 07:24:54;;;;;;;15.73;8.73;;;3.80;99.90;4.70;95573.00;;;;5038870;28;20808;-69
2022/11/16 07:27:42;;;;;;;12.70;8.63;;;3.90;99.90;4.90;95568.00;;;;5038206;28;20200;-69
2022/11/16 07:30:31;;;;;;;13.83;7.83;;;;;5.00;95566.00;;;;5047853;28;20423;-69
2022/11/16 07:33:20;;;;;;;12.23;10.10;;;4.00;99.90;5.10;95567.00;;;;5035552;28;20513;-69
2022/11/16 07:36:13;;;;;;;14.73;10.10;;;4.00;99.90;5.60;95562.00;;;;5034416;28;20486;-69
2022/11/16 07:39:02;;;;;;;13.40;8.77;;;4.20;99.90;5.50;95558.00;;;;5038602;28;20197;-68
2022/11/16 07:41:52;;;;;;;10.93;8.80;;;4.30;99.90;5.80;95559.00;;;;5048213;28;20222;-69
2022/11/16 07:44:41;;;;;;;17.20;11.37;;;4.40;99.90;5.80;95562.00;;;;5044190;28;20462;-69
2022/11/16 07:47:29;;;;;;;16.80;11.93;;;4.60;99.90;5.80;95554.00;;;;5039827;28;20734;-69
2022/11/16 07:50:18;;;;;;;19.33;10.80;;;4.70;99.90;6.10;95558.00;;;;5041468;28;20659;-68
2022/11/16 07:53:08;;;;;;;12.20;8.80;;;4.80;99.90;6.10;95554.00;;;;5045528;28;20204;-68
2022/11/16 07:55:57;;;;;;;13.93;9.20;;;4.90;99.90;5.80;95555.00;;;;5043144;28;20232;-69
2022/11/16 07:58:46;;;;;;;14.73;9.90;;;4.90;99.90;6.00;95554.00;;;;5045598;28;20217;-70
2022/11/16 08:01:35;;;;;;;15.47;9.63;;;4.90;99.90;6.20;95562.00;;;;5039190;28;20280;-69
2022/11/16 08:04:23;;;;;;;18.67;11.57;;;5.30;99.90;6.40;95560.00;;;;5044487;28;20200;-69
2022/11/16 08:07:13;;;;;;;15.50;10.67;;;5.20;99.90;6.60;95554.00;;;;5051953;28;20204;-69
2022/11/16 08:10:03;;;;;;;13.53;9.73;;;5.40;99.90;6.70;95553.00;;;;5041703;28;20204;-70
2022/11/16 08:12:53;;;;;;;14.57;10.20;;;5.40;99.90;6.80;95551.00;;;;5042076;28;20209;-69
2022/11/16 08:15:42;;;;;;;15.73;9.17;;;5.40;99.90;7.00;95554.00;;;;5040690;28;20263;-70
2022/11/16 08:18:31;;;;;;;13.70;9.60;;;5.60;99.90;7.00;95545.00;;;;5043508;28;20751;-69
2022/11/16 08:21:20;;;;;;;12.67;9.60;;;5.80;99.90;7.20;95552.00;;;;5042654;28;20212;-69
2022/11/16 08:24:09;;;;;;;10.10;8.50;;;5.70;99.90;7.40;95545.00;;;;5051016;28;20647;-69
2022/11/16 08:26:59;;;;;;;14.90;10.10;;;6.00;99.90;7.60;95555.00;;;;5038866;28;20213;-69
2022/11/16 08:29:48;;;;;;;14.77;9.47;;;6.10;99.90;7.60;95545.00;;;;5045874;28;20244;-70
2022/11/16 08:32:37;;;;;;;13.53;9.93;;;6.20;99.90;7.60;95546.00;;;;5038902;28;20197;-69
2022/11/16 08:35:26;;;;;;;17.47;10.47;;;6.40;99.90;8.00;95537.00;;;;5044963;28;20267;-69
2022/11/16 08:38:15;;;;;;;19.43;11.43;;;6.50;99.90;8.20;95545.00;;;;5040470;28;20203;-69
2022/11/16 08:41:03;;;;;;;17.30;11.53;;;6.70;99.90;8.20;95545.00;;;;5050511;28;20610;-69
2022/11/16 08:43:54;;;;;;;16.50;10.47;;;6.90;99.90;8.40;95542.00;;;;5039716;28;20291;-69
2022/11/16 08:46:42;;;;;;;19.10;10.40;;;7.00;99.90;8.90;95551.00;;;;5045324;28;20223;-69
2022/11/16 08:49:31;;;;;;;15.10;11.10;;;7.20;99.90;9.20;95545.00;;;;5042410;28;20270;-69
2022/11/16 08:52:20;;;;;;;14.27;9.60;;;7.30;99.90;9.20;95553.00;;;;5043748;28;20246;-69
2022/11/16 08:55:12;;;;;;;15.40;9.57;;;7.50;99.90;9.20;95554.00;;;;5044224;28;20236;-68
2022/11/16 08:58:01;;;;;;;13.27;9.67;;;7.60;99.90;9.20;95544.00;;;;5042255;28;20215;-69
2022/11/16 09:00:51;;;;;;;15.40;9.30;;;7.70;99.90;9.40;95550.00;;;;5050088;28;20196;-69
2022/11/16 09:03:41;;;;;;;16.80;10.67;;;7.80;99.90;9.70;95549.00;;;;5050050;28;20298;-69
2022/11/16 09:06:29;;;;;;;13.40;9.33;;;7.90;99.90;9.70;95548.00;;;;5049917;28;20217;-70
2022/11/16 09:09:18;;;;;;;13.43;9.43;;;8.00;99.90;9.90;95548.00;;;;5044077;28;20235;-70
2022/11/16 09:12:07;;;;;;;13.67;9.27;;;8.10;99.90;10.00;95554.00;;;;5037496;28;20288;-70
2022/11/16 09:14:56;;;;;;;15.43;9.70;;;8.20;99.90;9.50;95549.00;;;;5051038;28;20717;-69
2022/11/16 09:17:46;;;;;;;10.43;9.13;;;8.30;99.90;9.40;95544.00;;;;5051494;28;20703;-70
2022/11/16 09:20:35;;;;;;;12.17;8.83;;;8.20;99.90;8.90;95539.00;;;;5044068;28;20568;-69
2022/11/16 09:23:24;;;;;;;25.03;9.30;;;8.20;99.90;9.20;95537.00;;;;5042250;28;20616;-69
2022/11/16 09:26:13;;;;;;;13.07;8.77;;;8.00;99.90;9.30;95538.00;;;;5039392;28;20228;-69
2022/11/16 09:29:03;;;;;;;19.63;10.30;;;8.00;99.90;9.00;95545.00;;;;5046729;28;20896;-69
2022/11/16 09:31:51;;;;;;;15.67;9.47;;;8.00;99.90;8.80;95537.00;;;;5039337;28;20200;-69
2022/11/16 09:34:41;;;;;;;14.53;9.50;;;7.90;99.90;8.90;95521.00;;;;5040376;28;20231;-69
2022/11/16 09:37:30;;;;;;;14.93;10.43;;;7.80;99.90;8.70;95531.00;;;;5047051;28;20228;-67
2022/11/16 09:40:20;;;;;;;15.10;9.07;;;7.80;99.90;8.70;95512.00;;;;5040213;28;20212;-67
2022/11/16 09:43:23;;;;;;;15.57;9.80;;;7.70;99.90;8.90;95514.00;;;;5037670;28;20239;-67
2022/11/16 09:46:21;;;;;;;13.47;9.67;;;7.70;99.90;9.10;95508.00;;;;5039091;28;20216;-67
2022/11/16 09:49:14;;;;;;;15.53;10.47;;;7.80;99.90;9.20;95511.00;;;;5035882;28;20209;-67
2022/11/16 09:52:11;;;;;;;19.73;10.30;;;7.90;99.90;9.10;95505.00;;;;5041251;28;20193;-67
2022/11/16 09:55:19;;;;;;;12.37;9.13;;;7.90;99.90;9.30;95509.00;;;;5046642;28;20220;-67
2022/11/16 09:58:15;;;;;;;19.03;9.47;;;8.00;99.90;9.30;95505.00;;;;5045460;28;20228;-67
2022/11/16 10:01:16;;;;;;;14.70;10.33;;;8.10;99.90;9.80;95500.00;;;;5032616;28;20693;-68
2022/11/16 10:04:12;;;;;;;13.50;9.47;;;8.20;99.90;10.10;95502.00;;;;5042743;28;20208;-67
2022/11/16 10:07:08;;;;;;;16.03;9.30;;;8.30;99.90;9.80;95492.00;;;;5041805;28;20201;-67
2022/11/16 10:09:57;;;;;;;16.53;9.80;;;8.40;99.90;9.90;95487.00;;;;5041970;28;20254;-67
2022/11/16 10:12:52;;;;;;;12.03;8.70;;;8.50;99.90;10.10;95489.00;;;;5034940;28;20212;-67
2022/11/16 10:15:54;;;;;;;11.63;8.37;;;8.60;99.90;10.30;95480.00;;;;5044375;28;20267;-67
2022/11/16 10:18:54;;;;;;;12.27;7.60;;;8.70;99.90;10.20;95472.00;;;;5032024;28;20727;-67
2022/11/16 10:21:53;;;;;;;13.03;8.80;;;8.80;99.90;10.20;95474.00;;;;5040054;28;20193;-67
2022/11/16 10:24:56;;;;;;;15.60;8.60;;;8.90;99.90;10.20;95463.00;;;;5043612;28;20216;-67
2022/11/16 10:28:13;;;;;;;11.93;8.43;;;8.90;99.90;10.80;95466.00;;;;5041832;28;20688;-67
2022/11/16 10:31:13;;;;;;;17.10;9.87;;;9.10;99.90;10.70;95462.00;;;;5039954;28;20233;-67
2022/11/16 10:34:06;;;;;;;15.93;7.87;;;9.40;99.90;10.80;95460.00;;;;5046681;28;20220;-67
2022/11/16 10:37:02;;;;;;;12.63;8.37;;;9.50;99.90;10.50;95451.00;;;;5042402;28;20288;-67
2022/11/16 10:39:53;;;;;;;12.07;8.70;;;9.50;99.90;10.60;95452.00;;;;5043783;28;20220;-67
2022/11/16 10:42:41;;;;;;;11.87;9.33;;;9.50;99.90;10.60;95444.00;;;;5038730;28;20343;-67
2022/11/16 10:45:39;;;;;;;12.07;8.17;;;9.40;99.90;10.80;95445.00;;;;5038337;28;20220;-67
2022/11/16 10:48:38;;;;;;;11.87;7.87;;;9.40;99.90;10.60;95438.00;;;;5037905;28;20201;-67
2022/11/16 10:51:27;;;;;;;11.53;8.37;;;9.50;99.90;10.40;95441.00;;;;5037024;28;20205;-68
2022/11/16 10:54:18;;;;;;;19.30;8.20;;;9.40;99.90;10.60;95435.00;;;;5038386;28;20289;-68
2022/11/16 10:57:12;;;;;;;11.47;8.17;;;9.40;99.90;10.90;95429.00;;;;5039893;28;20221;-68
2022/11/16 11:00:02;;;;;;;12.53;8.17;;;9.40;99.90;11.10;95431.00;;;;5033385;28;20197;-68
2022/11/16 11:02:51;;;;;;;14.63;9.20;;;9.50;99.90;10.60;95430.00;;;;5037141;28;20232;-68
2022/11/16 11:05:51;;;;;;;10.43;7.97;;;9.50;99.90;10.80;95433.00;;;;5040308;28;20228;-67
2022/11/16 11:08:39;;;;;;;11.17;7.93;;;9.50;99.90;10.80;95432.00;;;;5040023;28;20219;-67
2022/11/16 11:14:36;;;;;;;12.03;7.77;;;9.40;99.90;10.70;95434.00;;;;5032498;28;20263;-68
2022/11/16 11:17:25;;;;;;;11.13;7.63;;;9.40;99.90;10.50;95433.00;;;;5048254;28;20236;-68
2022/11/16 11:20:23;;;;;;;12.27;7.30;;;9.40;99.90;11.10;95430.00;;;;5040582;28;20642;-67
2022/11/16 11:23:15;;;;;;;10.00;7.03;;;9.40;99.90;11.30;95434.00;;;;5040322;28;20239;-67
2022/11/16 11:26:05;;;;;;;11.10;7.60;;;9.50;99.90;11.20;95437.00;;;;5040016;28;20217;-67
2022/11/16 11:28:54;;;;;;;11.73;8.13;;;9.60;99.90;11.30;95439.00;;;;5034779;28;20307;-67
2022/11/16 11:31:47;;;;;;;12.63;8.80;;;9.60;99.90;11.20;95441.00;;;;5042486;28;20283;-68
2022/11/16 11:34:41;;;;;;;11.10;7.67;;;9.60;99.90;11.20;95440.00;;;;5035845;28;20217;-68
2022/11/16 11:37:33;;;;;;;12.47;8.30;;;9.70;99.90;11.20;95444.00;;;;5039828;28;20316;-68
2022/11/16 11:40:25;;;;;;;10.43;6.73;;;9.70;99.90;11.30;95443.00;;;;5054559;28;20277;-67
2022/11/16 11:43:24;;;;;;;11.77;8.10;;;9.70;99.90;11.10;95441.00;;;;5036958;28;20270;-70
2022/11/16 11:46:20;;;;;;;14.93;8.43;;;9.70;99.90;11.20;95451.00;;;;5051676;28;20224;-70
2022/11/16 11:49:18;;;;;;;11.03;7.70;;;9.70;99.90;11.30;95458.00;;;;5048051;28;20212;-70
2022/11/16 11:52:17;;;;;;;13.37;9.00;;;9.70;99.90;11.40;95453.00;;;;5047781;28;20237;-67
2022/11/16 11:55:08;;;;;;;9.23;7.20;;;9.80;99.90;11.40;95460.00;;;;5042501;28;20216;-67
2022/11/16 11:57:59;;;;;;;12.53;8.57;;;9.80;99.90;11.40;95451.00;;;;5050855;28;20228;-67
2022/11/16 12:01:05;;;;;;;19.10;10.43;;;9.80;99.90;11.50;95447.00;;;;5035675;28;20255;-67
2022/11/16 12:04:52;;;;;;;14.83;10.70;;;8.50;99.90;11.50;95459.00;;;;5046094;28;20224;-67
2022/11/16 12:07:56;;;;;;;14.93;10.73;;;9.90;99.90;11.60;95458.00;;;;5040441;28;20208;-67
2022/11/16 12:10:50;;;;;;;11.77;10.10;;;9.90;99.90;11.50;95460.00;;;;5036618;28;20196;-67
2022/11/16 12:14:00;;;;;;;18.00;11.63;;;9.90;99.90;11.60;95453.00;;;;5047063;28;20224;-67
2022/11/16 12:16:57;;;;;;;33.13;11.30;;;10.00;99.90;11.60;95463.00;;;;5051636;28;20219;-67
2022/11/16 12:20:16;;;;;;;18.87;10.87;;;10.00;99.90;11.50;95464.00;;;;5051153;28;20238;-67
2022/11/16 12:23:40;;;;;;;17.97;10.83;;;10.00;99.90;11.60;95454.00;;;;5045144;28;20218;-67
2022/11/16 12:26:44;;;;;;;17.43;9.90;;;10.00;99.90;11.50;95463.00;;;;5046100;28;20570;-67
2022/11/16 12:29:43;;;;;;;16.17;10.90;;;10.00;99.90;11.50;95474.00;;;;5044097;28;20579;-67
2022/11/16 12:32:59;;;;;;;18.17;11.40;;;10.00;99.90;11.50;95465.00;;;;5046106;28;20216;-67
2022/11/16 12:35:59;;;;;;;16.57;11.13;;;10.00;99.90;11.40;95459.00;;;;5048367;28;20231;-67
2022/11/16 12:39:05;;;;;;;17.03;10.77;;;10.00;99.90;11.40;95467.00;;;;5044295;28;20207;-67
2022/11/16 12:42:21;;;;;;;17.60;10.13;;;9.90;99.90;11.40;95462.00;;;;5041707;28;20673;-67
2022/11/16 12:45:41;;;;;;;15.57;10.40;;;9.90;99.90;11.40;95472.00;;;;5049680;28;20643;-67
2022/11/16 12:49:20;;;;;;;18.00;11.27;;;9.90;99.90;11.40;95475.00;;;;5034800;28;20282;-68
2022/11/16 12:52:33;;;;;;;16.20;10.67;;;9.80;99.90;11.40;95477.00;;;;5048807;28;20250;-67
2022/11/16 12:55:34;;;;;;;16.83;11.47;;;9.90;99.90;11.20;95472.00;;;;5044204;28;20220;-67
2022/11/16 12:58:40;;;;;;;16.57;11.00;;;9.80;99.90;11.30;95485.00;;;;5036642;28;20213;-67
2022/11/16 13:01:36;;;;;;;20.33;12.13;;;9.80;99.90;11.20;95477.00;;;;5044659;28;20220;-68
2022/11/16 13:04:32;;;;;;;20.20;12.93;;;9.80;99.90;11.10;95478.00;;;;5045503;28;20343;-67
2022/11/16 13:07:28;;;;;;;19.47;11.40;;;9.70;99.90;11.20;95491.00;;;;5042122;28;20236;-68
2022/11/16 13:10:21;;;;;;;15.50;11.50;;;9.70;99.90;11.20;95490.00;;;;5037597;28;20655;-67
2022/11/16 13:13:15;;;;;;;17.57;11.60;;;9.70;99.90;11.30;95492.00;;;;5041591;28;20284;-67
2022/11/16 13:16:19;;;;;;;14.17;10.03;;;9.70;99.90;11.20;95492.00;;;;5039343;28;20217;-67
2022/11/16 13:19:13;;;;;;;17.40;12.27;;;9.70;99.90;11.30;95495.00;;;;5040477;28;20205;-67
2022/11/16 13:22:07;;;;;;;19.20;11.53;;;9.70;99.90;11.30;95496.00;;;;5047794;28;20197;-67
2022/11/16 13:25:03;;;;;;;15.73;11.77;;;9.80;99.90;11.30;95483.00;;;;5041572;28;20221;-68
2022/11/16 13:27:57;;;;;;;21.17;12.30;;;9.80;99.90;11.40;95488.00;;;;5034625;28;20258;-67
2022/11/16 13:30:57;;;;;;;23.23;12.33;;;9.80;99.90;11.50;95499.00;;;;5044016;28;20193;-67
2022/11/16 13:33:49;;;;;;;18.87;13.00;;;9.80;99.90;11.40;95487.00;;;;5044077;28;20208;-67
2022/11/16 13:36:45;;;;;;;21.50;13.10;;;9.90;99.90;11.50;95490.00;;;;5040423;28;20204;-67